Time;durP1;ratioP1;P1;durP2;ratioP2;P2;SDS_P1;SDS_P2;PMS_P1;PMS_P2;Temp;Humidity;BMP_temperature;BMP_pressure;BME280_temperature;BME280_humidity;BME280_pressure;Samples;Min_cycle;Max_cycle;Signal;HPM_P1;HPM_P2
2023/11/22 00:01:57;;;;;;;7.38;4.28;;;7.40;99.90;;;;;;5048492;28;20218;-74
2023/11/22 00:04:43;;;;;;;4.15;3.75;;;7.40;99.90;;;;;;5056403;28;20724;-74
2023/11/22 00:07:29;;;;;;;5.10;3.60;;;7.30;99.90;;;;;;5052252;28;20192;-74
2023/11/22 00:10:15;;;;;;;4.83;3.30;;;7.30;99.90;;;;;;5055135;28;20693;-74
2023/11/22 00:13:02;;;;;;;4.43;3.83;;;7.30;99.90;;;;;;5049130;28;20443;-74
2023/11/22 00:15:50;;;;;;;7.27;3.60;;;7.20;99.90;;;;;;5056113;28;20446;-74
2023/11/22 00:18:37;;;;;;;5.30;3.97;;;7.10;99.90;;;;;;5044784;28;20520;-73
2023/11/22 00:21:22;;;;;;;4.70;3.70;;;7.10;99.90;;;;;;5051980;28;20223;-74
2023/11/22 00:24:09;;;;;;;4.63;3.73;;;7.00;99.90;;;;;;5054113;28;20478;-74
2023/11/22 00:26:54;;;;;;;6.15;4.50;;;7.00;99.90;;;;;;5055675;28;21021;-73
2023/11/22 00:29:41;;;;;;;8.77;4.10;;;6.90;99.90;;;;;;5060386;28;20225;-74
2023/11/22 00:32:27;;;;;;;7.10;4.37;;;7.10;99.90;;;;;;5057900;28;20446;-74
2023/11/22 00:35:12;;;;;;;5.50;3.65;;;7.00;99.90;;;;;;5046820;28;20444;-74
2023/11/22 00:37:59;;;;;;;8.47;4.80;;;7.10;99.90;;;;;;5048703;28;20694;-74
2023/11/22 00:40:44;;;;;;;5.18;4.20;;;7.00;99.90;;;;;;5057098;28;20443;-74
2023/11/22 00:43:30;;;;;;;9.23;4.22;;;7.00;99.90;;;;;;5058556;28;20209;-74
2023/11/22 00:46:17;;;;;;;6.13;4.25;;;6.90;99.90;;;;;;5049086;28;20566;-74
2023/11/22 00:49:04;;;;;;;5.97;4.05;;;6.90;99.90;;;;;;5052492;28;20367;-74
2023/11/22 00:51:50;;;;;;;4.50;3.70;;;6.90;99.90;;;;;;5058495;28;20209;-74
2023/11/22 00:54:36;;;;;;;4.88;3.42;;;6.90;99.90;;;;;;5062365;28;20202;-74
2023/11/22 00:57:21;;;;;;;4.68;3.30;;;6.90;99.90;;;;;;5047284;28;20205;-74
2023/11/22 01:00:09;;;;;;;4.97;3.97;;;7.00;99.90;;;;;;5055328;28;20215;-74
2023/11/22 01:02:56;;;;;;;9.73;4.17;;;6.90;99.90;;;;;;5060457;28;20207;-74
2023/11/22 01:05:42;;;;;;;4.70;3.77;;;6.80;99.90;;;;;;5053177;28;21113;-74
2023/11/22 01:08:27;;;;;;;3.92;3.25;;;6.80;99.90;;;;;;5059883;28;20460;-75
2023/11/22 01:11:13;;;;;;;4.73;3.33;;;6.90;99.90;;;;;;5057848;28;20210;-74
2023/11/22 01:13:59;;;;;;;5.50;4.43;;;6.90;99.90;;;;;;5044609;28;20503;-74
2023/11/22 01:16:44;;;;;;;4.50;3.60;;;6.90;99.90;;;;;;5048129;28;20464;-74
2023/11/22 01:19:31;;;;;;;5.05;3.35;;;6.80;99.90;;;;;;5053297;28;20224;-74
2023/11/22 01:22:17;;;;;;;4.82;3.28;;;6.80;99.90;;;;;;5050655;28;20399;-74
2023/11/22 01:25:04;;;;;;;4.25;3.38;;;6.60;99.90;;;;;;5050763;28;20839;-74
2023/11/22 01:27:50;;;;;;;6.05;4.00;;;6.50;99.90;;;;;;5054322;28;20589;-74
2023/11/22 01:30:35;;;;;;;4.50;3.90;;;6.50;99.90;;;;;;5052107;28;20205;-74
2023/11/22 01:33:21;;;;;;;9.93;3.27;;;6.50;99.90;;;;;;5046500;28;20450;-73
2023/11/22 01:36:09;;;;;;;4.80;3.63;;;6.50;99.90;;;;;;5050365;28;20852;-74
2023/11/22 01:38:55;;;;;;;6.25;3.58;;;6.40;99.90;;;;;;5052347;28;20360;-74
2023/11/22 01:41:41;;;;;;;4.47;3.40;;;6.40;99.90;;;;;;5054823;28;20305;-74
2023/11/22 01:44:27;;;;;;;4.03;2.97;;;6.30;99.90;;;;;;5049458;28;20296;-74
2023/11/22 01:47:13;;;;;;;4.05;3.08;;;6.30;99.90;;;;;;5053368;28;20917;-74
2023/11/22 01:49:59;;;;;;;3.72;2.65;;;6.30;99.90;;;;;;5060425;28;20212;-74
2023/11/22 01:52:48;;;;;;;4.70;3.20;;;6.30;99.90;;;;;;5047107;28;20317;-74
2023/11/22 01:55:34;;;;;;;3.85;3.20;;;6.30;99.90;;;;;;5048242;28;20198;-74
2023/11/22 01:58:20;;;;;;;7.97;2.75;;;6.30;99.90;;;;;;5057721;28;20234;-74
2023/11/22 02:01:06;;;;;;;4.23;3.20;;;6.00;99.90;;;;;;5057432;28;20713;-74
2023/11/22 02:03:53;;;;;;;5.45;2.70;;;6.00;99.90;;;;;;5056405;28;20579;-74
2023/11/22 02:06:39;;;;;;;4.03;2.97;;;6.00;99.90;;;;;;5054538;28;20197;-74
2023/11/22 02:09:25;;;;;;;8.38;3.03;;;6.10;99.90;;;;;;5050728;28;20517;-74
2023/11/22 02:12:12;;;;;;;4.35;3.30;;;6.00;99.90;;;;;;5051533;28;20567;-73
2023/11/22 02:14:57;;;;;;;3.70;2.70;;;6.00;99.90;;;;;;5049561;28;20210;-74
2023/11/22 02:17:43;;;;;;;5.18;4.18;;;5.90;99.90;;;;;;5056871;28;20227;-74
2023/11/22 02:20:29;;;;;;;4.65;3.40;;;5.80;99.90;;;;;;5050900;28;20287;-74
2023/11/22 02:23:17;;;;;;;2.90;2.28;;;5.80;99.90;;;;;;5059849;28;20561;-74
2023/11/22 02:26:02;;;;;;;7.15;3.35;;;5.80;99.90;;;;;;5054759;28;20226;-74
2023/11/22 02:28:49;;;;;;;6.18;3.35;;;5.90;99.90;;;;;;5047000;28;20594;-74
2023/11/22 02:31:35;;;;;;;4.45;3.38;;;5.90;99.90;;;;;;5050657;28;20205;-74
2023/11/22 02:34:20;;;;;;;4.07;3.15;;;5.90;99.90;;;;;;5062972;28;20629;-74
2023/11/22 02:37:06;;;;;;;4.35;3.15;;;5.90;99.90;;;;;;5050775;28;20580;-74
2023/11/22 02:40:01;;;;;;;4.80;3.05;;;5.90;99.90;;;;;;5048326;28;20289;-74
2023/11/22 02:42:47;;;;;;;3.85;2.80;;;5.90;99.90;;;;;;5053107;28;20697;-74
2023/11/22 02:45:32;;;;;;;4.10;3.10;;;5.80;99.90;;;;;;5052022;28;20296;-74
2023/11/22 02:48:18;;;;;;;5.63;3.13;;;5.90;99.90;;;;;;5042088;28;20221;-74
2023/11/22 02:51:06;;;;;;;6.50;2.90;;;5.80;99.90;;;;;;5045744;28;21081;-74
2023/11/22 02:53:52;;;;;;;5.43;3.20;;;5.70;99.90;;;;;;5048893;28;20692;-74
2023/11/22 02:56:40;;;;;;;4.22;2.88;;;5.60;99.90;;;;;;5062248;28;20207;-74
2023/11/22 02:59:26;;;;;;;3.10;2.53;;;5.40;99.90;;;;;;5047534;22;20243;-75
2023/11/22 03:02:12;;;;;;;3.93;2.60;;;5.30;99.90;;;;;;5010039;28;20446;-75
2023/11/22 03:04:58;;;;;;;4.32;3.13;;;5.20;99.90;;;;;;5006938;28;20489;-75
2023/11/22 03:07:44;;;;;;;9.15;2.95;;;5.10;99.90;;;;;;5014315;28;20211;-76
2023/11/22 03:10:30;;;;;;;3.85;3.10;;;5.00;99.90;;;;;;5005709;28;20662;-75
2023/11/22 03:13:17;;;;;;;4.07;2.67;;;5.10;99.90;;;;;;5008934;28;20697;-75
2023/11/22 03:16:04;;;;;;;4.05;3.25;;;5.10;99.90;;;;;;5011660;28;20446;-76
2023/11/22 03:18:50;;;;;;;16.27;4.05;;;5.00;99.90;;;;;;5008327;28;20222;-75
2023/11/22 03:21:36;;;;;;;3.05;2.60;;;4.90;99.90;;;;;;5002798;28;20694;-75
2023/11/22 03:24:22;;;;;;;4.10;3.10;;;4.90;99.90;;;;;;5010076;28;20206;-75
2023/11/22 03:27:07;;;;;;;6.53;3.63;;;4.90;99.90;;;;;;5011469;28;20222;-75
2023/11/22 03:29:55;;;;;;;6.53;3.10;;;4.90;99.90;;;;;;5010319;28;20225;-75
2023/11/22 03:32:41;;;;;;;5.90;4.30;;;4.90;99.90;;;;;;5009695;28;20436;-76
2023/11/22 03:35:26;;;;;;;4.60;3.30;;;4.90;99.90;;;;;;5004771;28;20570;-75
2023/11/22 03:38:12;;;;;;;7.65;3.28;;;4.90;99.90;;;;;;5005810;28;20227;-76
2023/11/22 03:40:58;;;;;;;4.45;3.13;;;4.90;99.90;;;;;;5010949;28;20198;-75
2023/11/22 03:43:44;;;;;;;8.73;3.00;;;4.80;99.90;;;;;;5011742;28;20259;-76
2023/11/22 03:46:31;;;;;;;5.53;3.10;;;4.80;99.90;;;;;;5012459;28;20813;-75
2023/11/22 03:49:16;;;;;;;4.28;2.70;;;4.70;99.90;;;;;;5016077;28;20528;-75
2023/11/22 03:52:02;;;;;;;5.00;3.00;;;4.70;99.90;;;;;;5007926;28;20693;-75
2023/11/22 03:54:48;;;;;;;4.38;3.00;;;4.70;99.90;;;;;;5004272;28;20349;-76
2023/11/22 03:57:34;;;;;;;4.03;3.08;;;4.70;99.90;;;;;;5000275;28;20227;-76
2023/11/22 04:00:20;;;;;;;3.67;2.78;;;4.60;99.90;;;;;;5013248;28;20534;-75
2023/11/22 04:03:07;;;;;;;5.60;2.63;;;4.50;99.90;;;;;;5013907;28;20211;-75
2023/11/22 04:05:52;;;;;;;6.80;3.00;;;4.50;99.90;;;;;;5007441;28;20226;-75
2023/11/22 04:08:38;;;;;;;6.05;3.70;;;4.40;99.90;;;;;;5001762;28;20227;-76
2023/11/22 04:11:24;;;;;;;6.97;3.53;;;4.40;99.90;;;;;;5011363;28;20578;-75
2023/11/22 04:14:10;;;;;;;6.05;3.20;;;4.30;99.90;;;;;;5016235;28;20609;-75
2023/11/22 04:16:55;;;;;;;5.53;3.00;;;4.30;99.90;;;;;;5011110;28;20202;-75
2023/11/22 04:19:42;;;;;;;5.00;4.13;;;4.40;99.90;;;;;;5012601;28;20308;-75
2023/11/22 04:22:27;;;;;;;5.32;3.03;;;4.40;99.90;;;;;;5014454;28;20211;-75
2023/11/22 04:25:14;;;;;;;5.75;3.20;;;4.40;99.90;;;;;;5010585;28;20587;-76
2023/11/22 04:28:00;;;;;;;6.55;3.05;;;4.30;99.90;;;;;;5007160;28;20208;-76
2023/11/22 04:30:45;;;;;;;4.15;3.20;;;4.40;99.90;;;;;;5015148;28;20226;-75
2023/11/22 04:33:31;;;;;;;4.53;2.75;;;4.20;99.90;;;;;;5007706;28;20329;-75
2023/11/22 04:36:19;;;;;;;6.30;3.40;;;4.10;99.90;;;;;;5016484;28;20208;-76
2023/11/22 04:39:06;;;;;;;4.80;3.33;;;4.00;99.90;;;;;;5012444;28;20605;-76
2023/11/22 04:41:52;;;;;;;4.40;2.95;;;4.00;99.90;;;;;;5011352;28;20198;-75
2023/11/22 04:44:37;;;;;;;3.67;2.90;;;4.00;99.90;;;;;;5009265;28;20289;-76
2023/11/22 04:47:23;;;;;;;3.90;3.05;;;4.00;99.90;;;;;;5010371;28;20227;-75
2023/11/22 04:50:10;;;;;;;3.40;2.65;;;3.90;99.90;;;;;;5015356;28;20209;-75
2023/11/22 04:52:58;;;;;;;3.58;2.83;;;3.90;99.90;;;;;;5012572;28;20686;-76
2023/11/22 04:55:43;;;;;;;4.93;3.00;;;3.70;99.90;;;;;;5014636;28;20218;-76
2023/11/22 04:58:29;;;;;;;5.05;3.15;;;3.70;99.90;;;;;;5019816;28;20226;-76
2023/11/22 05:01:15;;;;;;;4.60;3.15;;;3.60;99.90;;;;;;5011216;28;20198;-76
2023/11/22 05:04:00;;;;;;;5.35;3.33;;;3.60;99.90;;;;;;5005263;28;20210;-75
2023/11/22 05:06:46;;;;;;;3.40;3.00;;;3.60;99.90;;;;;;5008133;28;20222;-75
2023/11/22 05:09:33;;;;;;;4.50;3.10;;;3.60;99.90;;;;;;5019290;28;20596;-75
2023/11/22 05:12:19;;;;;;;5.97;3.28;;;3.60;99.90;;;;;;5017839;28;20572;-75
2023/11/22 05:15:05;;;;;;;4.85;3.22;;;3.60;99.90;;;;;;5009937;28;20265;-75
2023/11/22 05:17:51;;;;;;;5.80;3.20;;;3.60;99.90;;;;;;5011390;28;20297;-75
2023/11/22 05:20:37;;;;;;;4.32;3.17;;;3.50;99.90;;;;;;5013714;28;20206;-75
2023/11/22 05:23:23;;;;;;;3.10;2.65;;;3.30;99.90;;;;;;5005855;28;20205;-76
2023/11/22 05:26:09;;;;;;;4.28;3.30;;;3.30;99.90;;;;;;5009926;28;20229;-76
2023/11/22 05:28:55;;;;;;;3.50;2.47;;;3.30;99.90;;;;;;5011283;28;20221;-75
2023/11/22 05:31:41;;;;;;;3.97;2.88;;;3.30;99.90;;;;;;5014239;28;20245;-75
2023/11/22 05:34:27;;;;;;;3.88;2.78;;;3.20;99.90;;;;;;5009920;28;20218;-75
2023/11/22 05:37:13;;;;;;;3.45;2.65;;;3.20;99.90;;;;;;5013035;28;20597;-76
2023/11/22 05:39:59;;;;;;;2.88;2.30;;;3.30;99.90;;;;;;5010991;28;20730;-75
2023/11/22 05:42:46;;;;;;;4.90;3.45;;;3.40;99.90;;;;;;5010143;28;20210;-75
2023/11/22 05:45:32;;;;;;;5.95;3.50;;;3.40;99.90;;;;;;5005925;28;20225;-76
2023/11/22 05:48:18;;;;;;;3.53;2.85;;;3.40;99.90;;;;;;5012068;28;20242;-75
2023/11/22 05:51:04;;;;;;;4.18;2.90;;;3.40;99.90;;;;;;5009439;28;20210;-75
2023/11/22 05:53:50;;;;;;;4.45;3.42;;;3.40;99.90;;;;;;5007569;28;20207;-75
2023/11/22 05:56:37;;;;;;;4.80;3.42;;;3.40;99.90;;;;;;5015474;28;20197;-75
2023/11/22 05:59:25;;;;;;;4.78;3.35;;;3.50;99.90;;;;;;5014286;28;20358;-75
2023/11/22 06:02:10;;;;;;;5.63;3.55;;;3.60;99.90;;;;;;5008536;28;20350;-76
2023/11/22 06:04:56;;;;;;;5.10;3.65;;;3.70;99.90;;;;;;5008909;28;20573;-75
2023/11/22 06:07:42;;;;;;;5.15;3.78;;;3.70;99.90;;;;;;5009173;28;20194;-75
2023/11/22 06:10:27;;;;;;;4.70;3.60;;;3.70;99.90;;;;;;5014817;28;20217;-75
2023/11/22 06:13:13;;;;;;;5.43;3.60;;;3.80;99.90;;;;;;5013706;28;20213;-75
2023/11/22 06:16:00;;;;;;;5.95;3.63;;;3.70;99.90;;;;;;5008335;28;20670;-75
2023/11/22 06:18:46;;;;;;;6.13;4.55;;;3.70;99.90;;;;;;5012108;28;20353;-75
2023/11/22 06:21:32;;;;;;;6.68;4.13;;;3.80;99.90;;;;;;5009405;28;20244;-75
2023/11/22 06:24:19;;;;;;;4.90;3.47;;;3.80;99.90;;;;;;5010739;28;20269;-75
2023/11/22 06:27:06;;;;;;;6.10;4.22;;;3.80;99.90;;;;;;5010599;28;20228;-75
2023/11/22 06:29:51;;;;;;;5.93;4.30;;;3.70;99.90;;;;;;5008919;28;20218;-75
2023/11/22 06:32:39;;;;;;;6.03;4.05;;;3.70;99.90;;;;;;5008195;28;20202;-75
2023/11/22 06:35:24;;;;;;;7.28;4.00;;;3.70;99.90;;;;;;5010258;28;20214;-75
2023/11/22 06:38:10;;;;;;;6.05;3.97;;;3.70;99.90;;;;;;5014919;28;20787;-75
2023/11/22 06:40:55;;;;;;;8.77;3.60;;;3.80;99.90;;;;;;5010381;28;20205;-76
2023/11/22 06:43:41;;;;;;;5.38;3.92;;;3.80;99.90;;;;;;5009543;28;20285;-75
2023/11/22 06:46:27;;;;;;;6.30;4.00;;;3.80;99.90;;;;;;5005661;28;20225;-75
2023/11/22 06:49:14;;;;;;;5.97;4.18;;;3.80;99.90;;;;;;5013088;28;20226;-75
2023/11/22 06:51:59;;;;;;;5.47;4.10;;;3.80;99.90;;;;;;5004813;28;20201;-75
2023/11/22 06:54:45;;;;;;;5.07;3.80;;;3.80;99.90;;;;;;5009199;28;20225;-76
2023/11/22 06:57:32;;;;;;;6.00;3.85;;;3.70;99.90;;;;;;5005939;28;20681;-75
2023/11/22 07:00:20;;;;;;;6.25;4.15;;;3.70;99.90;;;;;;5010854;28;20709;-75
2023/11/22 07:03:05;;;;;;;5.85;3.95;;;3.70;99.90;;;;;;5004226;28;20345;-75
2023/11/22 07:05:53;;;;;;;7.30;4.97;;;3.70;99.90;;;;;;4997893;28;20219;-75
2023/11/22 07:08:38;;;;;;;5.78;4.40;;;3.60;99.90;;;;;;5009978;28;20226;-76
2023/11/22 07:11:24;;;;;;;8.25;3.97;;;3.60;99.90;;;;;;5010434;28;20269;-75
2023/11/22 07:14:09;;;;;;;6.65;4.47;;;3.60;99.90;;;;;;5011403;28;20210;-75
2023/11/22 07:16:57;;;;;;;8.60;4.20;;;3.70;99.90;;;;;;5013889;28;20224;-75
2023/11/22 07:19:46;;;;;;;5.45;4.20;;;3.60;99.90;;;;;;5009018;28;20300;-75
2023/11/22 07:22:33;;;;;;;5.05;3.75;;;3.60;99.90;;;;;;5006575;28;20747;-75
2023/11/22 07:25:19;;;;;;;7.25;5.50;;;3.60;99.90;;;;;;5005207;28;20293;-75
2023/11/22 07:28:05;;;;;;;6.68;5.15;;;3.60;99.90;;;;;;5018492;28;20225;-75
2023/11/22 07:30:51;;;;;;;7.03;4.60;;;3.60;99.90;;;;;;5006034;28;20285;-75
2023/11/22 07:33:38;;;;;;;7.25;4.57;;;3.60;99.90;;;;;;5008109;28;20214;-76
2023/11/22 07:36:24;;;;;;;9.90;4.50;;;3.70;99.90;;;;;;5006519;28;20277;-75
2023/11/22 07:39:12;;;;;;;6.78;4.65;;;3.70;99.90;;;;;;5014350;28;20230;-75
2023/11/22 07:41:58;;;;;;;6.22;4.63;;;3.70;99.90;;;;;;5002964;28;20239;-75
2023/11/22 07:44:43;;;;;;;6.63;4.82;;;3.70;99.90;;;;;;5018677;28;20201;-75
2023/11/22 07:47:29;;;;;;;6.00;4.85;;;3.70;99.90;;;;;;5015339;28;20705;-75
2023/11/22 07:50:15;;;;;;;6.65;4.35;;;3.80;99.90;;;;;;5014034;28;20206;-75
2023/11/22 07:53:04;;;;;;;7.45;5.40;;;3.90;99.90;;;;;;5007305;28;20579;-76
2023/11/22 07:55:51;;;;;;;5.95;4.05;;;3.90;99.90;;;;;;5010190;28;20697;-75
2023/11/22 07:58:37;;;;;;;7.88;5.50;;;4.00;99.90;;;;;;5015193;28;20588;-75
2023/11/22 08:01:23;;;;;;;7.95;5.47;;;3.90;99.90;;;;;;5007957;28;20218;-75
2023/11/22 08:04:09;;;;;;;8.02;5.05;;;3.90;99.90;;;;;;5009096;28;20281;-75
2023/11/22 08:06:56;;;;;;;7.93;5.22;;;4.00;99.90;;;;;;5009095;28;20229;-76
2023/11/22 08:09:43;;;;;;;7.25;5.30;;;4.00;99.90;;;;;;5010909;28;20226;-76
2023/11/22 08:12:30;;;;;;;7.72;4.65;;;4.10;99.90;;;;;;5011863;28;20210;-76
2023/11/22 08:15:17;;;;;;;7.35;5.90;;;4.10;99.90;;;;;;5008308;28;20216;-74
2023/11/22 08:18:03;;;;;;;5.45;4.00;;;4.10;99.90;;;;;;5008087;28;20243;-74
2023/11/22 08:20:49;;;;;;;8.75;5.68;;;4.20;99.90;;;;;;5010686;28;20230;-74
2023/11/22 08:23:35;;;;;;;5.45;4.03;;;4.20;99.90;;;;;;5015957;28;20268;-74
2023/11/22 08:26:21;;;;;;;5.05;3.40;;;4.20;99.90;;;;;;5021186;28;20325;-74
2023/11/22 08:29:07;;;;;;;8.30;4.10;;;4.30;99.90;;;;;;5014260;28;20736;-73
2023/11/22 08:31:53;;;;;;;5.53;3.83;;;4.40;99.90;;;;;;5017082;28;20257;-74
2023/11/22 08:34:39;;;;;;;9.48;4.95;;;4.40;99.90;;;;;;5013806;28;20206;-74
2023/11/22 08:37:25;;;;;;;6.85;4.60;;;4.50;99.90;;;;;;5018317;28;20214;-73
2023/11/22 08:40:14;;;;;;;6.53;4.68;;;4.50;99.90;;;;;;5011438;28;20679;-74
2023/11/22 08:42:59;;;;;;;6.03;4.22;;;4.50;99.90;;;;;;5019684;28;20285;-74
2023/11/22 08:45:46;;;;;;;7.88;5.13;;;4.50;99.90;;;;;;5008227;28;20213;-74
2023/11/22 08:48:32;;;;;;;5.78;4.38;;;4.50;99.90;;;;;;5007064;28;20754;-74
2023/11/22 08:51:17;;;;;;;5.25;4.20;;;4.50;99.90;;;;;;5016539;28;20574;-74
2023/11/22 08:54:04;;;;;;;5.13;4.25;;;4.40;99.90;;;;;;5016775;28;20284;-74
2023/11/22 08:56:50;;;;;;;7.43;4.78;;;4.50;99.90;;;;;;5012787;28;20198;-74
2023/11/22 08:59:38;;;;;;;6.13;4.68;;;4.40;99.90;;;;;;5007617;28;20249;-74
2023/11/22 09:02:26;;;;;;;5.78;4.05;;;4.40;99.90;;;;;;5008382;28;20203;-74
2023/11/22 09:05:12;;;;;;;6.65;4.75;;;4.50;99.90;;;;;;5014759;28;20218;-75
2023/11/22 09:07:58;;;;;;;5.25;4.10;;;4.50;99.90;;;;;;5011261;28;20810;-74
2023/11/22 09:10:44;;;;;;;8.00;4.50;;;4.50;99.90;;;;;;5014797;28;20211;-74
2023/11/22 09:13:30;;;;;;;7.18;4.70;;;4.50;99.90;;;;;;5006074;28;20202;-74
2023/11/22 09:16:16;;;;;;;7.15;4.60;;;4.60;99.90;;;;;;5019643;28;20210;-74
2023/11/22 09:19:03;;;;;;;4.93;3.88;;;4.70;99.90;;;;;;5015617;28;20231;-74
2023/11/22 09:21:49;;;;;;;6.80;4.10;;;4.70;99.90;;;;;;5019149;28;20569;-73
2023/11/22 09:24:36;;;;;;;5.75;3.88;;;4.80;99.90;;;;;;5017288;28;20285;-74
2023/11/22 09:27:22;;;;;;;7.45;4.35;;;4.80;99.90;;;;;;5004328;28;20365;-74
2023/11/22 09:30:17;;;;;;;6.95;4.80;;;4.80;99.30;;;;;;5019574;28;20290;-74
2023/11/22 09:33:04;;;;;;;7.45;3.80;;;4.80;99.40;;;;;;5020247;28;20209;-74
2023/11/22 09:35:51;;;;;;;6.22;3.85;;;4.80;99.30;;;;;;5018823;28;20277;-74
2023/11/22 09:38:38;;;;;;;7.13;3.83;;;4.90;98.00;;;;;;5009355;28;20238;-74
2023/11/22 09:41:25;;;;;;;7.97;4.50;;;5.10;96.20;;;;;;5003427;28;20211;-74
2023/11/22 09:44:10;;;;;;;4.53;3.40;;;5.30;95.70;;;;;;5016745;28;20637;-74
2023/11/22 09:46:57;;;;;;;6.85;4.35;;;5.40;93.70;;;;;;5007166;28;20222;-74
2023/11/22 09:49:44;;;;;;;5.35;3.90;;;5.60;93.40;;;;;;5006507;28;20746;-74
2023/11/22 09:52:34;;;;;;;7.15;3.80;;;5.50;92.60;;;;;;5010468;28;20293;-74
2023/11/22 09:55:22;;;;;;;5.70;4.00;;;5.70;90.80;;;;;;5012335;28;20230;-74
2023/11/22 09:58:08;;;;;;;6.00;3.83;;;5.80;85.70;;;;;;5017037;28;20482;-74
2023/11/22 10:00:54;;;;;;;7.10;4.63;;;5.80;84.50;;;;;;5016198;28;20203;-74
2023/11/22 10:03:40;;;;;;;7.93;3.80;;;5.90;83.50;;;;;;5011987;28;20442;-74
2023/11/22 10:06:26;;;;;;;4.90;3.88;;;6.00;82.60;;;;;;5015604;28;21024;-74
2023/11/22 10:09:13;;;;;;;4.75;3.90;;;6.20;82.70;;;;;;5007520;28;20231;-74
2023/11/22 10:12:03;;;;;;;9.93;4.00;;;6.30;79.30;;;;;;5002808;28;20212;-74
2023/11/22 10:14:49;;;;;;;5.20;3.97;;;6.40;80.60;;;;;;5019189;28;20264;-73
2023/11/22 10:17:35;;;;;;;5.40;3.60;;;6.40;81.00;;;;;;5016465;28;20446;-73
2023/11/22 10:20:21;;;;;;;6.57;3.70;;;6.50;73.50;;;;;;5009557;28;20222;-74
2023/11/22 10:23:10;;;;;;;5.68;3.97;;;6.60;71.10;;;;;;5005719;28;20211;-74
2023/11/22 10:25:57;;;;;;;5.00;3.20;;;6.60;71.80;;;;;;5009169;28;20568;-74
2023/11/22 10:28:43;;;;;;;4.90;3.63;;;6.70;70.50;;;;;;5010303;28;20807;-75
2023/11/22 10:31:28;;;;;;;7.32;4.28;;;6.90;68.70;;;;;;5015779;28;20843;-74
2023/11/22 10:34:14;;;;;;;4.97;3.97;;;7.00;65.70;;;;;;5014418;28;20291;-74
2023/11/22 10:37:03;;;;;;;4.75;3.25;;;6.80;62.40;;;;;;5016995;28;20204;-74
2023/11/22 10:39:52;;;;;;;11.77;3.77;;;6.60;65.40;;;;;;5014718;28;20712;-73
2023/11/22 10:42:41;;;;;;;4.82;3.42;;;6.50;64.70;;;;;;5002275;28;20462;-73
2023/11/22 10:45:29;;;;;;;9.83;4.47;;;6.40;68.10;;;;;;5013635;28;20377;-74
2023/11/22 10:48:16;;;;;;;5.83;4.30;;;6.50;68.40;;;;;;5021091;28;20849;-74
2023/11/22 10:51:05;;;;;;;6.55;3.58;;;6.60;68.80;;;;;;5013161;28;20470;-73
2023/11/22 10:53:51;;;;;;;5.50;3.92;;;6.50;66.80;;;;;;5003447;28;20208;-74
2023/11/22 10:56:41;;;;;;;5.93;4.18;;;6.30;66.20;;;;;;5002775;28;20234;-74
2023/11/22 10:59:31;;;;;;;8.18;4.05;;;6.20;67.50;;;;;;5008075;28;20374;-73
2023/11/22 11:02:18;;;;;;;7.38;3.80;;;6.00;69.80;;;;;;5007245;28;20208;-73
2023/11/22 11:05:12;;;;;;;7.38;3.60;;;6.00;69.00;;;;;;5002919;28;20519;-73
2023/11/22 11:08:10;;;;;;;9.32;3.90;;;6.00;71.00;;;;;;5002804;28;20228;-74
2023/11/22 11:10:58;;;;;;;5.15;4.05;;;5.90;74.30;;;;;;5006063;28;20328;-74
2023/11/22 11:13:45;;;;;;;5.68;3.50;;;5.80;75.30;;;;;;5004263;28;20729;-75
2023/11/22 11:16:34;;;;;;;6.03;4.38;;;5.90;75.90;;;;;;5003660;28;20207;-74
2023/11/22 11:19:22;;;;;;;4.22;3.35;;;5.90;75.60;;;;;;5006910;28;20591;-74
2023/11/22 11:22:10;;;;;;;5.32;3.45;;;5.90;74.30;;;;;;5016460;28;20205;-74
2023/11/22 11:25:02;;;;;;;7.05;4.07;;;5.90;73.60;;;;;;5008311;28;20202;-74
2023/11/22 11:27:58;;;;;;;6.20;4.50;;;5.80;73.50;;;;;;5010949;28;20289;-74
2023/11/22 11:30:46;;;;;;;6.70;4.63;;;5.80;74.50;;;;;;5009027;28;20202;-74
2023/11/22 11:33:35;;;;;;;8.73;4.45;;;5.80;76.10;;;;;;5013856;28;20517;-74
2023/11/22 11:36:24;;;;;;;5.32;4.15;;;5.80;74.50;;;;;;5014719;28;20207;-74
2023/11/22 11:39:15;;;;;;;6.45;4.68;;;5.80;73.50;;;;;;5007912;28;20224;-74
2023/11/22 11:42:11;;;;;;;5.30;3.88;;;5.70;73.40;;;;;;5008901;28;20211;-74
2023/11/22 11:45:06;;;;;;;8.48;4.68;;;5.70;75.10;;;;;;5004706;28;20199;-73
2023/11/22 11:47:52;;;;;;;5.68;4.50;;;5.80;75.50;;;;;;5007204;28;20226;-75
2023/11/22 11:50:38;;;;;;;7.05;4.32;;;5.80;74.60;;;;;;5011507;28;20762;-74
2023/11/22 11:53:24;;;;;;;5.85;4.35;;;5.80;72.30;;;;;;5013495;28;20289;-75
2023/11/22 11:56:10;;;;;;;6.65;4.03;;;5.80;74.40;;;;;;5007936;28;20594;-75
2023/11/22 11:58:59;;;;;;;4.80;3.83;;;5.80;72.00;;;;;;5013069;28;20226;-75
2023/11/22 12:01:45;;;;;;;6.60;4.75;;;5.90;71.10;;;;;;5014200;28;20725;-75
2023/11/22 12:04:32;;;;;;;6.10;4.60;;;5.90;70.70;;;;;;5011053;28;20291;-75
2023/11/22 12:07:19;;;;;;;4.68;3.90;;;6.00;72.90;;;;;;5013932;28;20222;-74
2023/11/22 12:10:07;;;;;;;6.68;3.70;;;5.90;71.10;;;;;;5010882;28;20266;-74
2023/11/22 12:12:53;;;;;;;5.80;3.97;;;5.90;68.90;;;;;;5009186;28;20799;-74
2023/11/22 12:15:40;;;;;;;5.55;3.83;;;5.80;71.80;;;;;;5013913;28;20220;-75
2023/11/22 12:18:26;;;;;;;6.05;3.78;;;5.80;74.00;;;;;;5013551;28;20240;-74
2023/11/22 12:21:13;;;;;;;4.97;3.60;;;5.80;71.50;;;;;;5008056;28;20632;-75
2023/11/22 12:24:02;;;;;;;6.45;3.60;;;5.70;71.10;;;;;;5013828;28;20706;-75
2023/11/22 12:26:49;;;;;;;3.60;3.05;;;5.70;70.00;;;;;;5010305;28;20216;-75
2023/11/22 12:29:37;;;;;;;5.55;3.55;;;5.80;73.00;;;;;;5007959;28;20343;-74
2023/11/22 12:32:25;;;;;;;4.53;3.47;;;5.80;73.00;;;;;;5007620;28;20206;-72
2023/11/22 12:35:11;;;;;;;4.55;3.40;;;5.90;87.30;;;;;;5022284;28;20226;-75
2023/11/22 12:37:59;;;;;;;4.90;3.80;;;5.90;75.00;;;;;;5015135;28;20278;-76
2023/11/22 12:40:47;;;;;;;5.95;4.00;;;5.90;72.90;;;;;;5007704;28;20964;-76
2023/11/22 12:43:33;;;;;;;5.43;3.83;;;5.80;69.20;;;;;;5015767;28;20203;-74
2023/11/22 12:46:19;;;;;;;5.63;3.47;;;5.70;67.50;;;;;;5013575;28;20210;-74
2023/11/22 12:49:08;;;;;;;5.03;3.60;;;5.60;67.80;;;;;;5011285;28;20236;-74
2023/11/22 12:51:55;;;;;;;4.32;3.47;;;5.50;73.00;;;;;;5019070;28;20207;-74
2023/11/22 12:54:41;;;;;;;4.75;3.95;;;5.60;72.40;;;;;;5014891;28;20741;-74
2023/11/22 12:57:28;;;;;;;5.77;3.93;;;5.60;72.80;;;;;;5016531;28;20260;-74
2023/11/22 13:00:14;;;;;;;5.35;4.18;;;5.60;73.30;;;;;;5010061;28;20534;-74
2023/11/22 13:03:00;;;;;;;5.70;3.88;;;5.60;72.00;;;;;;5018828;28;20226;-74
2023/11/22 13:05:47;;;;;;;5.32;4.13;;;5.60;73.20;;;;;;5010527;28;20203;-74
2023/11/22 13:08:35;;;;;;;4.75;3.70;;;5.60;70.70;;;;;;5006789;28;20221;-74
2023/11/22 13:11:21;;;;;;;5.47;3.95;;;5.60;74.10;;;;;;5019696;28;20229;-75
2023/11/22 13:14:08;;;;;;;6.38;4.05;;;5.60;72.50;;;;;;5025057;28;20214;-74
2023/11/22 13:16:54;;;;;;;5.43;3.60;;;5.60;70.30;;;;;;5022748;28;20199;-74
2023/11/22 13:19:40;;;;;;;5.57;3.70;;;5.60;69.30;;;;;;5017509;28;20592;-73
2023/11/22 13:22:27;;;;;;;5.90;4.10;;;5.60;68.50;;;;;;5016386;28;20207;-73
2023/11/22 13:25:13;;;;;;;5.70;3.57;;;5.60;70.60;;;;;;5011538;28;20442;-74
2023/11/22 13:27:59;;;;;;;4.85;3.50;;;5.60;69.20;;;;;;5014186;28;20843;-74
2023/11/22 13:30:48;;;;;;;4.85;3.60;;;5.70;69.20;;;;;;5009616;28;20267;-73
2023/11/22 13:33:34;;;;;;;4.43;3.50;;;5.70;68.80;;;;;;5008605;28;20200;-74
2023/11/22 13:36:20;;;;;;;7.03;4.03;;;5.70;68.10;;;;;;5010108;28;20669;-74
2023/11/22 13:39:05;;;;;;;4.53;3.37;;;5.80;67.40;;;;;;5009766;28;20513;-73
2023/11/22 13:41:51;;;;;;;5.43;4.05;;;5.80;68.20;;;;;;5006282;28;20458;-74
2023/11/22 13:44:37;;;;;;;5.32;3.88;;;5.70;66.50;;;;;;5009590;28;20203;-74
2023/11/22 13:47:24;;;;;;;4.65;3.90;;;5.70;65.60;;;;;;5012178;28;20210;-74
2023/11/22 13:50:10;;;;;;;9.93;4.63;;;5.70;64.10;;;;;;5009229;28;20202;-75
2023/11/22 13:52:57;;;;;;;6.78;4.18;;;5.60;62.10;;;;;;5001740;28;20202;-73
2023/11/22 13:55:43;;;;;;;5.85;4.03;;;5.60;61.80;;;;;;5010426;28;20326;-74
2023/11/22 13:58:28;;;;;;;5.28;3.05;;;5.60;63.10;;;;;;5011592;28;20230;-74
2023/11/22 14:01:21;;;;;;;5.80;3.97;;;5.70;61.80;;;;;;5007524;28;20206;-75
2023/11/22 14:04:08;;;;;;;4.28;3.60;;;5.70;64.10;;;;;;5010488;28;20459;-75
2023/11/22 14:06:53;;;;;;;5.50;3.43;;;5.80;63.80;;;;;;5002989;28;20207;-74
2023/11/22 14:09:39;;;;;;;5.28;3.75;;;5.70;62.50;;;;;;5010532;28;20480;-74
2023/11/22 14:12:25;;;;;;;4.50;3.35;;;5.50;59.50;;;;;;5014372;28;20902;-74
2023/11/22 14:15:11;;;;;;;5.00;3.83;;;5.50;62.30;;;;;;5009478;28;20203;-75
2023/11/22 14:17:57;;;;;;;4.35;3.38;;;5.50;63.90;;;;;;5008394;28;20540;-75
2023/11/22 14:20:44;;;;;;;7.20;3.97;;;5.60;66.50;;;;;;5010032;28;20667;-75
2023/11/22 14:23:30;;;;;;;5.82;4.45;;;5.70;67.60;;;;;;5009185;28;20446;-75
2023/11/22 14:26:16;;;;;;;6.28;4.10;;;5.80;67.20;;;;;;5005168;28;20203;-75
2023/11/22 14:29:02;;;;;;;5.13;3.60;;;5.80;66.30;;;;;;5005155;28;20230;-75
2023/11/22 14:31:47;;;;;;;5.30;3.92;;;5.80;63.70;;;;;;5013258;28;20214;-75
2023/11/22 14:34:33;;;;;;;5.60;3.70;;;5.80;64.20;;;;;;5008059;28;20215;-74
2023/11/22 14:37:20;;;;;;;8.70;4.40;;;5.90;68.80;;;;;;5003387;28;20748;-74
2023/11/22 14:40:13;;;;;;;5.47;3.78;;;5.80;69.60;;;;;;5007903;28;20441;-74